Rogers Park, Illinois
Current Conditions -  °F | °C
As of 3:51 AM on Saturday 29 Nov 2014 (Local Time) from KORD Reporting Station
Broken Clouds Broken Clouds  
Wind Chill: 23°   Ceiling: 25000
Heat Index: 30°   Visibility: 9mi
Dew Point: 26°   Wind: 7mph
Humidity: 85%   Direction: 160°SSE
Pressure: 29.77"   Gusts: NA
Location:  41.991°N, 87.6654°W
Report Text: KORD 290951Z 16006KT 9SM BKN250 M01/M03 A2977 RMK AO2 SLP088 T10111033
Loading
Personal Weather Stations






























Interactive Weather Map New forecast layout! Learn more

10-Day Weather Forecast

Advertisements
Track Severe Weather on mobile